Time;durP1;ratioP1;P1;durP2;ratioP2;P2;SDS_P1;SDS_P2;PMS_P1;PMS_P2;Temp;Humidity;BMP_temperature;BMP_pressure;BME280_temperature;BME280_humidity;BME280_pressure;Samples;Min_cycle;Max_cycle;Signal;HPM_P1;HPM_P2
2021/11/20 00:01:27;;;;;;;5.93;1.63;;;17.60;99.90;;;;;;5009218;28;20045;-75
2021/11/20 00:03:54;;;;;;;5.95;1.38;;;17.60;99.90;;;;;;5011954;28;20058;-74
2021/11/20 00:06:24;;;;;;;5.03;1.60;;;17.60;99.90;;;;;;5003463;28;20061;-74
2021/11/20 00:08:51;;;;;;;7.00;1.30;;;17.60;99.90;;;;;;4996507;28;20121;-75
2021/11/20 00:11:19;;;;;;;4.80;1.65;;;17.60;99.90;;;;;;5012661;28;20124;-77
2021/11/20 00:13:46;;;;;;;8.38;1.77;;;17.50;99.90;;;;;;4994689;28;20096;-76
2021/11/20 00:16:13;;;;;;;10.70;1.30;;;17.60;99.90;;;;;;5012307;28;20138;-76
2021/11/20 00:18:40;;;;;;;6.28;1.55;;;17.60;99.90;;;;;;5007537;28;20391;-73
2021/11/20 00:21:10;;;;;;;6.10;1.13;;;17.50;99.90;;;;;;5003209;28;20408;-75
2021/11/20 00:23:39;;;;;;;4.75;1.60;;;17.50;99.90;;;;;;5009541;28;20045;-75
2021/11/20 00:26:08;;;;;;;4.97;1.42;;;17.50;99.90;;;;;;5011845;28;20064;-76
2021/11/20 00:28:53;;;;;;;3.03;1.45;;;17.50;99.90;;;;;;5006197;28;20053;-76
2021/11/20 00:31:20;;;;;;;3.10;1.17;;;17.50;99.90;;;;;;5009445;28;20045;-75
2021/11/20 00:33:46;;;;;;;2.95;1.15;;;17.50;99.90;;;;;;5010647;28;20524;-75
2021/11/20 00:36:13;;;;;;;5.90;1.80;;;17.50;99.90;;;;;;5008069;28;20050;-75
2021/11/20 00:38:40;;;;;;;3.50;1.15;;;17.40;99.90;;;;;;5003112;28;20507;-75
2021/11/20 00:41:12;;;;;;;2.90;1.30;;;17.40;99.90;;;;;;5003019;28;20041;-75
2021/11/20 00:43:39;;;;;;;6.05;1.33;;;17.40;99.90;;;;;;4997222;28;20049;-75
2021/11/20 00:46:06;;;;;;;3.85;1.30;;;17.40;99.90;;;;;;4993271;28;20050;-76
2021/11/20 00:48:32;;;;;;;3.40;1.20;;;17.40;99.90;;;;;;4993683;28;20062;-77
2021/11/20 00:51:03;;;;;;;6.53;1.40;;;17.40;99.90;;;;;;4996807;28;20521;-76
2021/11/20 00:53:30;;;;;;;4.60;1.40;;;17.40;99.90;;;;;;4999885;28;20107;-74
2021/11/20 00:55:57;;;;;;;4.47;1.25;;;17.40;99.90;;;;;;5000383;28;20552;-75
2021/11/20 00:58:23;;;;;;;5.05;1.65;;;17.40;99.90;;;;;;4995761;28;20061;-75
2021/11/20 01:00:56;;;;;;;6.43;1.27;;;17.30;99.90;;;;;;4997996;28;20057;-76
2021/11/20 01:03:22;;;;;;;3.80;1.23;;;17.30;99.90;;;;;;5009024;28;20101;-75
2021/11/20 01:05:49;;;;;;;3.53;1.30;;;17.30;99.90;;;;;;4993781;28;20042;-75
2021/11/20 01:08:18;;;;;;;3.85;1.30;;;17.30;99.90;;;;;;4996072;28;20129;-75
2021/11/20 01:10:56;;;;;;;4.18;1.33;;;17.30;99.90;;;;;;5011069;28;20506;-75
2021/11/20 01:13:23;;;;;;;5.25;1.45;;;17.30;99.90;;;;;;4998371;28;20099;-74
2021/11/20 01:15:54;;;;;;;1.65;1.00;;;17.30;99.90;;;;;;5000365;28;20372;-75
2021/11/20 01:18:21;;;;;;;3.03;1.40;;;17.30;99.90;;;;;;5008745;28;20131;-75
2021/11/20 01:20:48;;;;;;;3.13;1.23;;;17.20;99.90;;;;;;5010683;28;20049;-75
2021/11/20 01:23:15;;;;;;;2.88;1.27;;;17.30;99.90;;;;;;5011251;28;20469;-75
2021/11/20 01:25:42;;;;;;;2.40;1.52;;;17.20;99.90;;;;;;5010518;28;20108;-75
2021/11/20 01:28:09;;;;;;;5.00;1.30;;;17.20;99.90;;;;;;5009973;28;20069;-75
2021/11/20 01:30:36;;;;;;;4.57;1.38;;;17.20;99.90;;;;;;5010917;28;20045;-77
2021/11/20 01:33:02;;;;;;;5.57;1.27;;;17.20;99.90;;;;;;5010849;28;20108;-75
2021/11/20 01:35:28;;;;;;;5.20;1.40;;;17.20;99.90;;;;;;5009925;28;20139;-75
2021/11/20 01:37:54;;;;;;;2.63;1.30;;;17.10;99.90;;;;;;5010532;28;20089;-75
2021/11/20 01:40:23;;;;;;;3.35;1.15;;;17.10;99.90;;;;;;5010814;28;20060;-75
2021/11/20 01:42:49;;;;;;;3.83;1.40;;;17.10;99.90;;;;;;5010365;28;20046;-76
2021/11/20 01:45:25;;;;;;;2.05;1.20;;;17.20;99.90;;;;;;5010787;28;20473;-75
2021/11/20 01:47:54;;;;;;;3.78;1.35;;;17.10;99.90;;;;;;5009008;28;20081;-75
2021/11/20 01:50:41;;;;;;;3.45;1.33;;;17.10;99.90;;;;;;5010766;28;20060;-75
2021/11/20 01:53:10;;;;;;;1.00;0.90;;;17.10;99.90;;;;;;5005920;28;20073;-75
2021/11/20 01:55:42;;;;;;;1.45;1.00;;;17.10;99.90;;;;;;5010382;28;20046;-76
2021/11/20 01:58:44;;;;;;;4.95;1.40;;;17.10;99.90;;;;;;5009261;28;20069;-75
2021/11/20 02:01:18;;;;;;;3.10;1.30;;;17.10;99.90;;;;;;5010382;28;20613;-75
2021/11/20 02:04:25;;;;;;;1.45;0.95;;;17.00;99.90;;;;;;5009614;28;20077;-76
2021/11/20 02:07:17;;;;;;;3.38;1.15;;;17.00;99.90;;;;;;5008180;28;20049;-75
2021/11/20 02:09:49;;;;;;;2.90;1.30;;;17.10;99.90;;;;;;5007435;28;20042;-75
2021/11/20 02:12:22;;;;;;;3.15;1.13;;;17.00;99.90;;;;;;5009429;28;20438;-75
2021/11/20 02:14:48;;;;;;;2.47;1.10;;;17.00;99.90;;;;;;5000580;28;20046;-76
2021/11/20 02:17:20;;;;;;;4.25;1.35;;;17.00;99.90;;;;;;5010401;28;20126;-75
2021/11/20 02:19:51;;;;;;;2.00;0.90;;;17.00;99.90;;;;;;5008718;28;20041;-75
2021/11/20 02:22:17;;;;;;;1.80;1.10;;;17.00;99.90;;;;;;5009340;28;20076;-75
2021/11/20 02:24:42;;;;;;;3.35;1.40;;;17.00;99.90;;;;;;5009133;28;20471;-77
2021/11/20 02:27:10;;;;;;;3.90;1.10;;;17.00;99.90;;;;;;5010200;28;20060;-76
2021/11/20 02:29:48;;;;;;;2.28;1.30;;;17.00;99.90;;;;;;5009962;28;20494;-76
2021/11/20 02:32:23;;;;;;;2.47;0.95;;;16.90;99.90;;;;;;5000033;28;20133;-76
2021/11/20 02:34:51;;;;;;;3.53;1.10;;;17.00;99.90;;;;;;5007583;28;20073;-77
2021/11/20 02:37:18;;;;;;;2.78;1.20;;;17.00;99.90;;;;;;5010114;28;20386;-76
2021/11/20 02:39:45;;;;;;;2.42;1.20;;;17.00;99.90;;;;;;5009092;28;21149;-77
2021/11/20 02:42:17;;;;;;;4.50;0.90;;;17.00;99.90;;;;;;4992252;28;20129;-76
2021/11/20 02:44:44;;;;;;;3.45;1.20;;;17.00;99.90;;;;;;5005855;28;20054;-77
2021/11/20 02:47:31;;;;;;;1.42;0.98;;;17.00;99.90;;;;;;5009629;28;20104;-75
2021/11/20 02:49:57;;;;;;;5.05;1.52;;;16.90;99.90;;;;;;5008956;28;20417;-76
2021/11/20 02:52:24;;;;;;;2.88;1.20;;;16.90;99.90;;;;;;5008271;28;20050;-76
2021/11/20 02:54:50;;;;;;;3.45;1.30;;;16.90;99.90;;;;;;5008153;28;20513;-76
2021/11/20 02:57:23;;;;;;;2.63;1.27;;;16.90;99.90;;;;;;5008812;28;20099;-76
2021/11/20 02:59:48;;;;;;;1.48;1.05;;;16.90;99.90;;;;;;5008209;28;20050;-76
2021/11/20 03:02:15;;;;;;;2.95;1.55;;;16.90;99.90;;;;;;5003664;28;20057;-76
2021/11/20 03:04:43;;;;;;;5.20;1.40;;;16.90;99.90;;;;;;5009932;28;20410;-76
2021/11/20 03:07:09;;;;;;;1.52;0.90;;;16.90;99.90;;;;;;5009176;28;20117;-76
2021/11/20 03:09:36;;;;;;;3.22;1.02;;;16.80;99.90;;;;;;5011582;28;20747;-76
2021/11/20 03:12:05;;;;;;;2.60;1.13;;;16.90;99.90;;;;;;5011020;28;20053;-76
2021/11/20 03:14:32;;;;;;;3.25;1.05;;;16.90;99.90;;;;;;5012275;28;20064;-75
2021/11/20 03:17:06;;;;;;;1.73;0.95;;;16.80;99.90;;;;;;5013008;28;20050;-76
2021/11/20 03:19:36;;;;;;;3.40;1.40;;;16.90;99.90;;;;;;5013497;28;20132;-76
2021/11/20 03:22:06;;;;;;;;;;;16.90;99.90;;;;;;5011111;28;20050;-76
2021/11/20 03:24:32;;;;;;;2.40;1.00;;;16.80;99.90;;;;;;5028857;28;20427;-75
2021/11/20 03:26:59;;;;;;;1.30;0.93;;;16.90;99.90;;;;;;5012925;28;20061;-75
2021/11/20 03:29:25;;;;;;;2.92;1.20;;;16.90;99.90;;;;;;4995623;28;20056;-75
2021/11/20 03:31:53;;;;;;;1.35;0.98;;;16.80;99.90;;;;;;5004824;28;20046;-76
2021/11/20 03:34:22;;;;;;;2.70;1.00;;;16.80;99.90;;;;;;5006558;28;20046;-75
2021/11/20 03:36:48;;;;;;;3.17;1.00;;;16.80;99.90;;;;;;5013253;28;20104;-77
2021/11/20 03:39:14;;;;;;;3.60;1.20;;;16.80;99.90;;;;;;5013043;28;20064;-76
2021/11/20 03:41:40;;;;;;;4.82;1.42;;;16.80;99.90;;;;;;5012062;28;20046;-74
2021/11/20 03:44:06;;;;;;;3.53;1.10;;;16.80;99.90;;;;;;5011636;28;20062;-73
2021/11/20 03:46:32;;;;;;;5.32;0.90;;;16.80;99.90;;;;;;5012623;28;20107;-72
2021/11/20 03:48:59;;;;;;;6.30;0.85;;;16.80;99.90;;;;;;5011676;28;20452;-73
2021/11/20 03:51:25;;;;;;;1.42;0.90;;;16.80;99.90;;;;;;5011004;28;20505;-73
2021/11/20 03:53:51;;;;;;;4.65;1.30;;;16.80;99.90;;;;;;5012405;28;20180;-75
2021/11/20 03:56:17;;;;;;;5.68;0.95;;;16.80;99.90;;;;;;5012543;28;20041;-73
2021/11/20 03:58:43;;;;;;;1.92;0.80;;;16.70;99.90;;;;;;5012404;28;20053;-73
2021/11/20 04:01:13;;;;;;;4.20;1.10;;;16.80;99.90;;;;;;5006398;28;20038;-73
2021/11/20 04:03:41;;;;;;;2.95;1.05;;;16.70;99.90;;;;;;4997554;28;20045;-73
2021/11/20 04:06:16;;;;;;;2.92;1.33;;;16.70;99.90;;;;;;4993842;28;20508;-73
2021/11/20 04:08:44;;;;;;;1.40;0.90;;;16.70;99.90;;;;;;4995206;28;20041;-74
2021/11/20 04:11:10;;;;;;;3.00;1.27;;;16.70;99.90;;;;;;5005646;28;20459;-73
2021/11/20 04:13:37;;;;;;;2.50;0.98;;;16.70;99.90;;;;;;5004508;28;20095;-73
2021/11/20 04:16:06;;;;;;;2.83;1.15;;;16.70;99.90;;;;;;5011836;28;20175;-74
2021/11/20 04:18:31;;;;;;;1.73;0.80;;;16.70;99.90;;;;;;5011363;28;20057;-73
2021/11/20 04:20:57;;;;;;;3.55;1.50;;;16.70;99.90;;;;;;5010803;28;20041;-74
2021/11/20 04:23:23;;;;;;;1.98;1.00;;;16.70;99.90;;;;;;5010846;28;20402;-73
2021/11/20 04:25:49;;;;;;;0.77;0.70;;;16.70;99.90;;;;;;5012083;28;20513;-74
2021/11/20 04:28:15;;;;;;;1.95;0.90;;;16.70;99.90;;;;;;5011692;28;20502;-73
2021/11/20 04:30:42;;;;;;;2.55;1.30;;;16.60;99.90;;;;;;5011073;28;20855;-73
2021/11/20 04:33:08;;;;;;;2.17;0.90;;;16.70;99.90;;;;;;5009717;28;20042;-73
2021/11/20 04:35:34;;;;;;;2.95;1.00;;;16.70;99.90;;;;;;5010949;28;20494;-73
2021/11/20 04:38:00;;;;;;;1.85;0.90;;;16.60;99.90;;;;;;5011422;28;20096;-73
2021/11/20 04:40:26;;;;;;;1.27;0.88;;;16.70;99.90;;;;;;5012319;28;20045;-73
2021/11/20 04:42:52;;;;;;;0.80;0.80;;;16.60;99.90;;;;;;5010180;28;20501;-73
2021/11/20 04:45:20;;;;;;;1.48;0.88;;;16.60;99.90;;;;;;5011633;28;20068;-74
2021/11/20 04:47:46;;;;;;;1.23;0.80;;;16.60;99.90;;;;;;5010491;28;20058;-73
2021/11/20 04:50:13;;;;;;;1.20;0.75;;;16.60;99.90;;;;;;5010222;28;20052;-73
2021/11/20 04:52:40;;;;;;;1.83;1.20;;;16.60;99.90;;;;;;5009823;28;20038;-73
2021/11/20 04:55:08;;;;;;;2.53;1.10;;;16.60;99.90;;;;;;5006750;28;20033;-74
2021/11/20 04:57:34;;;;;;;1.67;1.02;;;16.60;99.90;;;;;;5011583;28;20073;-73
2021/11/20 05:00:00;;;;;;;2.10;0.82;;;16.60;99.90;;;;;;5011147;28;20056;-74
2021/11/20 05:02:26;;;;;;;1.15;0.80;;;16.60;99.90;;;;;;5004183;28;20050;-74
2021/11/20 05:04:52;;;;;;;2.28;0.98;;;16.60;99.90;;;;;;4995469;28;20046;-74
2021/11/20 05:07:17;;;;;;;1.42;0.90;;;16.60;99.90;;;;;;4998855;28;20045;-74
2021/11/20 05:09:43;;;;;;;2.95;1.10;;;16.50;99.90;;;;;;5007380;28;20046;-73
2021/11/20 05:12:09;;;;;;;0.68;0.55;;;16.50;99.90;;;;;;5004749;28;20058;-75
2021/11/20 05:14:37;;;;;;;1.52;0.65;;;16.50;99.90;;;;;;5011260;28;20054;-74
2021/11/20 05:17:03;;;;;;;4.53;0.90;;;16.50;99.90;;;;;;5010831;28;20057;-73
2021/11/20 05:19:29;;;;;;;1.58;0.70;;;16.50;99.90;;;;;;5011145;28;20081;-74
2021/11/20 05:21:55;;;;;;;0.93;0.77;;;16.50;99.90;;;;;;5011354;28;20053;-73
2021/11/20 05:24:22;;;;;;;1.67;0.90;;;16.60;99.90;;;;;;5010856;28;20058;-74
2021/11/20 05:26:51;;;;;;;4.32;1.00;;;16.60;99.90;;;;;;5011201;28;20084;-73
2021/11/20 05:29:31;;;;;;;1.58;0.77;;;16.50;99.90;;;;;;4992829;28;20406;-73
2021/11/20 05:31:57;;;;;;;2.13;0.73;;;16.50;99.90;;;;;;5006834;28;20045;-73
2021/11/20 05:34:23;;;;;;;0.68;0.60;;;16.50;99.90;;;;;;5003604;28;20121;-73
2021/11/20 05:36:49;;;;;;;1.50;0.90;;;16.50;99.90;;;;;;5011115;28;20077;-74
2021/11/20 05:39:15;;;;;;;2.35;0.90;;;16.50;99.90;;;;;;5001798;28;20458;-73
2021/11/20 05:41:41;;;;;;;1.13;1.02;;;16.50;99.90;;;;;;5002315;28;20053;-74
2021/11/20 05:44:11;;;;;;;1.88;1.13;;;16.50;99.90;;;;;;5009818;28;20437;-73
2021/11/20 05:46:37;;;;;;;;;;;16.50;99.90;;;;;;5011190;28;20140;-74
2021/11/20 05:49:03;;;;;;;1.70;0.80;;;16.50;99.90;;;;;;5010283;28;20444;-74
2021/11/20 05:51:30;;;;;;;0.95;0.50;;;16.50;99.90;;;;;;5010575;28;20116;-74
2021/11/20 05:53:55;;;;;;;1.17;0.90;;;16.50;99.90;;;;;;5009313;28;20444;-74
2021/11/20 05:56:21;;;;;;;1.45;0.75;;;16.50;99.90;;;;;;5009211;28;20064;-74
2021/11/20 05:58:47;;;;;;;2.75;0.90;;;16.50;99.90;;;;;;5010786;28;20038;-73
2021/11/20 06:01:15;;;;;;;1.52;0.75;;;16.50;99.90;;;;;;5010094;28;20057;-73
2021/11/20 06:03:40;;;;;;;1.77;0.95;;;16.50;99.90;;;;;;5009214;28;20141;-73
2021/11/20 06:06:07;;;;;;;1.70;0.70;;;16.50;99.90;;;;;;5009527;28;20518;-74
2021/11/20 06:08:33;;;;;;;1.33;0.70;;;16.50;99.90;;;;;;5010163;28;20464;-74
2021/11/20 06:11:01;;;;;;;1.40;0.70;;;16.40;99.90;;;;;;5009437;28;20034;-73
2021/11/20 06:13:28;;;;;;;0.90;0.70;;;16.40;99.90;;;;;;5008367;28;20041;-73
2021/11/20 06:15:55;;;;;;;2.78;1.08;;;16.50;99.90;;;;;;5009620;28;20482;-73
2021/11/20 06:18:21;;;;;;;1.25;0.90;;;16.40;99.90;;;;;;5009913;28;20097;-74
2021/11/20 06:20:49;;;;;;;2.83;0.82;;;16.40;99.90;;;;;;5009874;28;20552;-73
2021/11/20 06:23:16;;;;;;;1.33;0.77;;;16.40;99.90;;;;;;5007783;28;20402;-73
2021/11/20 06:25:42;;;;;;;1.80;0.77;;;16.40;99.90;;;;;;5008358;28;20064;-73
2021/11/20 06:28:08;;;;;;;3.65;1.10;;;16.40;99.90;;;;;;5009392;28;20038;-73
2021/11/20 06:30:34;;;;;;;1.98;0.80;;;16.40;99.90;;;;;;5010281;28;20080;-74
2021/11/20 06:33:00;;;;;;;1.60;0.70;;;16.40;99.90;;;;;;5008814;28;20042;-73
2021/11/20 06:35:29;;;;;;;2.65;1.05;;;16.40;99.90;;;;;;5006974;28;20092;-73
2021/11/20 06:37:55;;;;;;;1.88;0.90;;;16.40;99.90;;;;;;5009966;28;20547;-73
2021/11/20 06:40:28;;;;;;;0.63;0.63;;;16.40;99.90;;;;;;5008538;28;20050;-73
2021/11/20 06:42:55;;;;;;;1.80;0.80;;;16.40;99.90;;;;;;5009899;28;20042;-73
2021/11/20 06:45:24;;;;;;;1.10;0.95;;;16.40;99.90;;;;;;5001168;28;20121;-73
2021/11/20 06:47:51;;;;;;;0.90;0.75;;;16.40;99.90;;;;;;5002263;28;20389;-73
2021/11/20 06:50:18;;;;;;;1.20;0.70;;;16.40;99.90;;;;;;5009167;28;20572;-73
2021/11/20 06:52:44;;;;;;;1.38;0.77;;;16.40;99.90;;;;;;5009993;28;20041;-73
2021/11/20 06:55:12;;;;;;;2.55;0.90;;;16.40;99.90;;;;;;5006324;28;20050;-73
2021/11/20 07:00:26;;;;;;;1.20;0.80;;;16.40;99.90;;;;;;5009626;28;20046;-75
2021/11/20 07:03:04;;;;;;;2.90;1.10;;;16.40;99.90;;;;;;5009912;28;20042;-73
2021/11/20 07:05:32;;;;;;;1.33;0.88;;;16.50;99.90;;;;;;5000394;28;20104;-73
2021/11/20 07:08:00;;;;;;;1.75;0.73;;;16.50;99.90;;;;;;5009829;28;20080;-73
2021/11/20 07:10:27;;;;;;;1.27;0.82;;;16.50;99.90;;;;;;5008904;28;20490;-73
2021/11/20 07:12:55;;;;;;;1.10;0.70;;;16.60;99.90;;;;;;5009617;28;20085;-73
2021/11/20 07:15:23;;;;;;;0.82;0.60;;;16.70;99.90;;;;;;4999723;28;20498;-73
2021/11/20 07:17:50;;;;;;;1.02;0.75;;;16.70;99.90;;;;;;5008093;28;20104;-73
2021/11/20 07:20:17;;;;;;;0.90;0.60;;;16.80;99.90;;;;;;5009180;28;20121;-74
2021/11/20 07:22:43;;;;;;;2.45;0.77;;;16.90;99.90;;;;;;5009601;28;20402;-74
2021/11/20 07:25:10;;;;;;;0.65;0.60;;;16.90;99.90;;;;;;5007892;28;20045;-75
2021/11/20 07:27:36;;;;;;;1.35;0.57;;;16.90;99.90;;;;;;4998866;28;20125;-74
2021/11/20 07:30:04;;;;;;;0.77;0.60;;;17.00;99.90;;;;;;5005310;28;20118;-74
2021/11/20 07:32:30;;;;;;;1.02;0.60;;;17.00;99.90;;;;;;5009013;28;20069;-73
2021/11/20 07:34:56;;;;;;;0.50;0.40;;;17.10;99.90;;;;;;5009051;28;20470;-74
2021/11/20 07:37:22;;;;;;;0.75;0.60;;;17.10;99.90;;;;;;5007918;28;20046;-74
2021/11/20 07:39:48;;;;;;;1.10;0.75;;;17.20;99.90;;;;;;5008268;28;20057;-73
2021/11/20 07:42:14;;;;;;;1.55;0.63;;;17.20;99.90;;;;;;5008958;28;20053;-73
2021/11/20 07:44:40;;;;;;;0.57;0.40;;;17.20;99.90;;;;;;4995696;28;20050;-74
2021/11/20 07:47:06;;;;;;;3.03;0.80;;;17.30;99.90;;;;;;5008703;28;20046;-74
2021/11/20 07:49:32;;;;;;;0.73;0.57;;;17.30;99.90;;;;;;5008187;28;20583;-74
2021/11/20 07:51:58;;;;;;;0.82;0.60;;;17.30;99.90;;;;;;4991687;28;20050;-74
2021/11/20 07:54:24;;;;;;;1.27;0.35;;;17.30;99.90;;;;;;4998930;28;20073;-75
2021/11/20 07:56:50;;;;;;;1.45;0.70;;;17.30;99.90;;;;;;4992973;28;20372;-73
2021/11/20 07:59:17;;;;;;;1.25;0.60;;;17.30;99.90;;;;;;4993155;28;20078;-74
2021/11/20 08:01:44;;;;;;;0.93;0.60;;;17.40;99.90;;;;;;5007129;28;20469;-74
2021/11/20 08:04:10;;;;;;;0.85;0.55;;;17.40;99.90;;;;;;4995718;28;20417;-74
2021/11/20 08:06:37;;;;;;;1.05;0.60;;;17.30;99.90;;;;;;4994720;28;20500;-74
2021/11/20 08:09:06;;;;;;;1.20;0.65;;;17.40;99.90;;;;;;4996837;28;20042;-74
2021/11/20 08:11:33;;;;;;;0.93;0.68;;;17.40;99.90;;;;;;5012163;28;20046;-74
2021/11/20 08:13:59;;;;;;;0.98;0.50;;;17.40;99.90;;;;;;5012349;28;20037;-74
2021/11/20 08:16:27;;;;;;;1.38;0.47;;;17.40;99.90;;;;;;5009964;28;20045;-74
2021/11/20 08:18:53;;;;;;;1.45;0.60;;;17.40;99.90;;;;;;4994496;28;20057;-74
2021/11/20 08:21:19;;;;;;;1.05;0.60;;;17.40;99.90;;;;;;5010476;28;20046;-73
2021/11/20 08:23:45;;;;;;;0.70;0.50;;;17.40;99.90;;;;;;5005175;28;20509;-75
2021/11/20 08:26:11;;;;;;;1.10;0.70;;;17.40;99.90;;;;;;4986752;28;20049;-74
2021/11/20 08:28:37;;;;;;;1.40;0.70;;;17.40;99.90;;;;;;5006460;28;20046;-74
2021/11/20 08:31:04;;;;;;;1.80;0.60;;;17.40;99.90;;;;;;4998468;28;20058;-75
2021/11/20 08:33:31;;;;;;;1.17;0.50;;;17.40;99.90;;;;;;5007419;28;20391;-72
2021/11/20 08:35:57;;;;;;;3.05;0.63;;;17.40;99.90;;;;;;4996497;28;20061;-74
2021/11/20 08:38:24;;;;;;;0.70;0.50;;;17.40;99.90;;;;;;5001745;28;20030;-73
2021/11/20 08:40:50;;;;;;;0.57;0.57;;;17.40;99.90;;;;;;4997458;28;20182;-73
2021/11/20 08:43:18;;;;;;;0.93;0.82;;;17.40;99.90;;;;;;5001651;28;20053;-76
2021/11/20 08:45:50;;;;;;;0.50;0.50;;;17.40;99.90;;;;;;4997292;28;20085;-73
2021/11/20 08:48:16;;;;;;;0.52;0.50;;;17.50;99.90;;;;;;4999927;28;20081;-73
2021/11/20 08:50:50;;;;;;;1.27;0.57;;;17.50;99.90;;;;;;5006771;28;20401;-72
2021/11/20 08:53:16;;;;;;;2.92;0.70;;;17.50;99.90;;;;;;4998440;28;20053;-73
2021/11/20 08:55:42;;;;;;;1.30;0.82;;;17.50;99.90;;;;;;4997631;28;20068;-73
2021/11/20 08:58:09;;;;;;;0.68;0.60;;;17.50;99.90;;;;;;4997245;28;20038;-73
2021/11/20 09:00:39;;;;;;;0.68;0.50;;;17.50;99.90;;;;;;5000960;28;20046;-73
2021/11/20 09:03:16;;;;;;;1.42;0.80;;;17.50;99.90;;;;;;5000509;28;20050;-74
2021/11/20 09:05:57;;;;;;;5.15;1.00;;;17.50;99.90;;;;;;4998457;28;20041;-73
2021/11/20 09:08:54;;;;;;;2.13;0.73;;;17.50;99.90;;;;;;5010032;28;20045;-73
2021/11/20 09:11:32;;;;;;;1.02;0.70;;;17.50;99.90;;;;;;4995666;28;20086;-76
2021/11/20 09:14:12;;;;;;;2.38;0.90;;;17.50;99.90;;;;;;5009417;28;20081;-73
2021/11/20 09:16:40;;;;;;;3.90;0.73;;;17.50;99.90;;;;;;5009622;28;20060;-73
2021/11/20 09:19:07;;;;;;;8.07;1.13;;;17.60;99.90;;;;;;5001523;28;20050;-73
2021/11/20 09:21:33;;;;;;;3.47;0.70;;;17.60;99.90;;;;;;4998920;28;20046;-72
2021/11/20 09:24:00;;;;;;;7.43;0.82;;;17.60;99.90;;;;;;5002469;28;20082;-73
2021/11/20 09:26:27;;;;;;;4.47;0.75;;;17.60;99.90;;;;;;4999511;28;20084;-73
2021/11/20 09:28:55;;;;;;;4.90;0.90;;;17.60;99.90;;;;;;4995676;28;20042;-74
2021/11/20 09:31:21;;;;;;;5.90;0.82;;;17.70;99.90;;;;;;4999905;28;20837;-76
2021/11/20 09:33:46;;;;;;;6.82;1.10;;;17.70;99.90;;;;;;4996384;28;20048;-72
2021/11/20 09:36:12;;;;;;;4.13;1.33;;;17.70;99.90;;;;;;5001775;28;20054;-73
2021/11/20 09:38:39;;;;;;;2.20;0.82;;;17.70;99.90;;;;;;4996057;28;20104;-73
2021/11/20 09:41:18;;;;;;;6.80;1.10;;;17.70;99.90;;;;;;4995381;28;20116;-74
2021/11/20 09:43:49;;;;;;;3.50;0.90;;;17.70;99.90;;;;;;4994876;28;20054;-73
2021/11/20 09:46:46;;;;;;;4.70;1.00;;;17.70;99.90;;;;;;4996714;28;20054;-73
2021/11/20 09:49:29;;;;;;;5.68;1.00;;;17.70;99.90;;;;;;4990541;28;20050;-73
2021/11/20 09:51:55;;;;;;;4.18;1.02;;;17.70;99.90;;;;;;5003231;28;20084;-74
2021/11/20 09:54:27;;;;;;;2.13;0.93;;;17.70;99.90;;;;;;5010355;28;20053;-74
2021/11/20 09:57:12;;;;;;;5.65;1.10;;;17.70;99.90;;;;;;5009719;28;20058;-74
2021/11/20 09:59:46;;;;;;;4.85;0.82;;;17.70;99.90;;;;;;5006789;28;20080;-73
2021/11/20 10:02:17;;;;;;;5.35;1.30;;;17.70;99.90;;;;;;5009075;28;20046;-72
2021/11/20 10:04:59;;;;;;;3.47;0.80;;;17.70;99.90;;;;;;5002628;28;20085;-73
2021/11/20 10:07:35;;;;;;;3.90;0.80;;;17.80;99.90;;;;;;4999059;28;20046;-75
2021/11/20 10:10:31;;;;;;;2.05;0.70;;;17.70;99.90;;;;;;5002324;28;20064;-74
2021/11/20 10:13:11;;;;;;;2.83;0.90;;;17.70;99.90;;;;;;5007510;28;20054;-74
2021/11/20 10:15:43;;;;;;;5.65;1.50;;;17.70;99.90;;;;;;5008223;28;20076;-73
2021/11/20 10:18:12;;;;;;;4.18;1.05;;;17.80;99.90;;;;;;4997588;28;20052;-73
2021/11/20 10:20:53;;;;;;;3.45;0.95;;;17.80;99.90;;;;;;5008755;28;20077;-73
2021/11/20 10:23:43;;;;;;;10.55;1.27;;;17.80;99.90;;;;;;4998326;28;20121;-73
2021/11/20 10:26:19;;;;;;;;;;;17.80;99.90;;;;;;5009613;28;20042;-73
2021/11/20 10:29:07;;;;;;;2.28;1.42;;;17.80;99.90;;;;;;5000313;28;19921;-75
2021/11/20 10:31:37;;;;;;;1.75;1.08;;;17.80;99.90;;;;;;5009421;28;20121;-72
2021/11/20 10:34:08;;;;;;;5.85;1.35;;;17.80;99.90;;;;;;5010424;28;20346;-72
2021/11/20 10:36:45;;;;;;;3.28;1.13;;;17.80;99.90;;;;;;4991022;28;20405;-73
2021/11/20 10:39:39;;;;;;;2.28;0.95;;;17.90;99.90;;;;;;5002741;28;20049;-73
2021/11/20 10:42:13;;;;;;;6.28;0.95;;;17.90;99.90;;;;;;5010237;28;20053;-75
2021/11/20 10:44:41;;;;;;;2.17;0.80;;;17.90;99.90;;;;;;5008553;28;20466;-72
2021/11/20 10:47:14;;;;;;;6.05;0.90;;;17.90;99.90;;;;;;5008145;28;20125;-73
2021/11/20 10:50:03;;;;;;;6.60;1.23;;;17.90;99.90;;;;;;5009431;28;20060;-72
2021/11/20 10:52:48;;;;;;;2.33;0.98;;;17.90;99.90;;;;;;5009754;28;20645;-76
2021/11/20 10:55:31;;;;;;;5.20;1.23;;;17.90;99.90;;;;;;5009513;28;20514;-73
2021/11/20 10:58:10;;;;;;;1.15;0.80;;;17.90;99.90;;;;;;5007210;28;20053;-75
2021/11/20 11:00:58;;;;;;;2.77;0.90;;;17.90;99.90;;;;;;4996328;28;20485;-72
2021/11/20 11:03:38;;;;;;;2.40;0.68;;;17.90;99.90;;;;;;5005389;28;20397;-72
2021/11/20 11:06:42;;;;;;;3.85;0.85;;;17.90;99.90;;;;;;5009874;28;20057;-73
2021/11/20 11:09:19;;;;;;;1.67;1.00;;;17.90;99.90;;;;;;5003663;28;20046;-73
2021/11/20 11:11:59;;;;;;;8.48;1.02;;;17.90;99.90;;;;;;5009341;28;20046;-74
2021/11/20 11:14:52;;;;;;;4.35;1.05;;;17.90;99.90;;;;;;5009428;28;20168;-72
2021/11/20 11:17:58;;;;;;;3.83;1.08;;;18.00;99.90;;;;;;5004273;28;20132;-73
2021/11/20 11:20:45;;;;;;;3.17;0.90;;;17.90;99.90;;;;;;5001672;28;20133;-73
2021/11/20 11:23:13;;;;;;;2.40;1.30;;;17.90;99.90;;;;;;4996539;28;20086;-72
2021/11/20 11:26:03;;;;;;;6.10;0.90;;;17.90;99.90;;;;;;5007016;28;20046;-72
2021/11/20 11:28:38;;;;;;;2.88;1.20;;;18.00;99.90;;;;;;4998091;28;20045;-72
2021/11/20 11:31:20;;;;;;;2.60;0.90;;;17.90;99.90;;;;;;5011980;28;20057;-72
2021/11/20 11:33:57;;;;;;;5.10;0.77;;;17.90;99.90;;;;;;5012906;28;20053;-73
2021/11/20 11:36:49;;;;;;;1.00;0.90;;;17.90;99.90;;;;;;5012340;28;20046;-72
2021/11/20 11:39:46;;;;;;;3.58;0.88;;;18.00;99.90;;;;;;5013499;28;20045;-73
2021/11/20 11:42:34;;;;;;;0.90;0.80;;;17.90;99.90;;;;;;5002811;28;20042;-73
2021/11/20 11:45:49;;;;;;;1.58;1.20;;;17.90;99.90;;;;;;5013138;28;20125;-72
2021/11/20 11:48:25;;;;;;;10.52;0.90;;;17.90;99.90;;;;;;4974876;28;20108;-73
2021/11/20 11:51:10;;;;;;;1.65;0.80;;;18.00;99.90;;;;;;5011513;28;20053;-72
2021/11/20 11:53:54;;;;;;;1.30;0.90;;;17.90;99.90;;;;;;5012209;28;20490;-73
2021/11/20 11:56:28;;;;;;;5.47;1.23;;;18.00;99.90;;;;;;5012557;28;20501;-72
2021/11/20 11:59:35;;;;;;;2.92;1.15;;;17.90;99.90;;;;;;4997682;28;20474;-72
2021/11/20 12:02:16;;;;;;;2.55;0.80;;;17.90;99.90;;;;;;4987970;28;20050;-72
2021/11/20 12:04:56;;;;;;;5.65;1.20;;;17.90;99.90;;;;;;5006762;28;20042;-72
2021/11/20 12:07:34;;;;;;;1.55;1.13;;;17.90;99.90;;;;;;5011866;28;20053;-74
2021/11/20 12:10:22;;;;;;;4.07;1.13;;;17.90;99.90;;;;;;5007536;28;20046;-72
2021/11/20 12:13:05;;;;;;;4.60;0.90;;;17.90;99.90;;;;;;5010164;28;20555;-72
2021/11/20 12:15:39;;;;;;;6.70;0.93;;;17.90;99.90;;;;;;5012906;28;20149;-72
2021/11/20 12:18:04;;;;;;;3.25;0.88;;;17.90;99.90;;;;;;4999411;28;20081;-72
2021/11/20 12:21:05;;;;;;;10.00;0.93;;;18.00;99.90;;;;;;5012651;28;20128;-72
2021/11/20 12:23:47;;;;;;;4.10;1.00;;;18.00;99.90;;;;;;5012471;28;20046;-73
2021/11/20 12:26:28;;;;;;;6.25;1.35;;;17.90;99.90;;;;;;5011211;28;20069;-73
2021/11/20 12:28:55;;;;;;;2.15;1.25;;;18.00;99.90;;;;;;5009865;28;20100;-73
2021/11/20 12:31:28;;;;;;;4.72;0.93;;;18.00;99.90;;;;;;5007616;28;20042;-72
2021/11/20 12:34:02;;;;;;;8.32;1.38;;;18.00;99.90;;;;;;5007189;28;20096;-73
2021/11/20 12:36:34;;;;;;;2.35;1.75;;;17.90;99.90;;;;;;5005673;28;20104;-72
2021/11/20 12:39:02;;;;;;;4.03;1.13;;;18.00;99.90;;;;;;5002064;28;20480;-72
2021/11/20 12:42:06;;;;;;;2.92;1.08;;;18.00;99.90;;;;;;5003875;28;20042;-72
2021/11/20 12:45:33;;;;;;;1.85;1.02;;;17.90;99.90;;;;;;4997866;28;20061;-73
2021/11/20 12:48:30;;;;;;;7.28;1.33;;;17.90;99.90;;;;;;4981627;28;20806;-73
2021/11/20 12:51:04;;;;;;;1.02;0.93;;;17.90;99.90;;;;;;4978245;28;20505;-72
2021/11/20 12:53:45;;;;;;;7.20;1.15;;;17.90;99.90;;;;;;5003037;28;20050;-72
2021/11/20 12:56:16;;;;;;;7.07;1.20;;;17.90;99.90;;;;;;5003504;28;20053;-74
2021/11/20 12:59:03;;;;;;;2.97;1.17;;;18.00;99.90;;;;;;5003377;28;20042;-75
2021/11/20 13:01:37;;;;;;;5.93;1.25;;;17.90;99.90;;;;;;4998225;28;20249;-73
2021/11/20 13:04:16;;;;;;;2.17;1.30;;;17.90;99.90;;;;;;4995736;28;20161;-73
2021/11/20 13:06:52;;;;;;;3.42;1.00;;;17.90;99.90;;;;;;5003006;28;20478;-76
2021/11/20 13:09:28;;;;;;;12.23;1.40;;;17.90;99.90;;;;;;5006899;28;20053;-74
2021/11/20 13:12:03;;;;;;;5.60;1.27;;;17.90;99.90;;;;;;5007869;28;20050;-73
2021/11/20 13:15:11;;;;;;;6.80;1.70;;;17.90;99.90;;;;;;5005019;28;20126;-72